Terminal Aerodrome Forecast
Issued by NWS

Home | Current Version | Previous Version | Text Only | Print | Product List | Glossary On
Versions: 1 2 3 4 5 6 7 8 9 10 11 12 13 14 15 16 17 18 19 20
000
FTUS46 KLOX 172333
TAFOXR
TAF
KOXR 172333Z 1800/1824 27011KT P6SM BKN200
     FM180300 VRB03KT P6SM SCT200
     FM181400 36004KT P6SM SCT200
     FM181800 31005KT P6SM BKN200
     FM182000 26007KT P6SM SCT200=

USA.gov is the U.S. government's official web portal to all federal, state and local government web resources and services.